Terminal Aerodrome Forecast
Issued by NWS

Home | Current Version | Previous Version | Graphics & Text | Print | Product List | Glossary On
Versions: 1 2 3 4 5 6 7 8 9 10 11 12 13 14 15 16 17 18 19 20 21 22
000
FTUS43 KICT 031541 AAB
TAFCNU
TAF AMD
KCNU 031541Z 0316/0412 22017G25KT 4SM -DZ BR OVC004
     FM031700 22018G26KT 5SM BR OVC009
     FM031800 22020G28KT P6SM BKN035
     FM032300 36017G25KT P6SM SCT035 OVC250=

USA.gov is the U.S. government's official web portal to all federal, state and local government web resources and services.